Ashton, Kansas
Current Conditions -  °F | °C
As of 4:54 PM on Thursday 20 Nov 2014 (Local Time) from KWLD Reporting Station
Clear Clear  
Wind Chill: 44°   Ceiling: Unl
Heat Index: 48°   Visibility: 10mi
Dew Point: 25°   Wind: 9mph
Humidity: 41%   Direction: 80°E
Pressure: 30.09"   Gusts: NA
Location:  37.0641°N, 97.2025°W
Report Text: KWLD 202254Z AUTO 08008KT 10SM CLR 09/M04 A3009 RMK AO2 SLP194 T00891039
Loading
Personal Weather Stations






























Interactive Weather Map New forecast layout! Learn more

10-Day Weather Forecast

Advertisements
Track Severe Weather on mobile